sensor_id;sensor_type;location;lat;lon;timestamp;P1;P2;P0
73146;PMS7003;61345;48.922;2.244;2023-04-25T00:00:02;2.25;1.00;1.00
73146;PMS7003;61345;48.922;2.244;2023-04-25T00:02:28;1.75;1.25;1.00
73146;PMS7003;61345;48.922;2.244;2023-04-25T00:04:56;1.00;1.00;0.00
73146;PMS7003;61345;48.922;2.244;2023-04-25T00:07:24;1.75;1.00;1.00
73146;PMS7003;61345;48.922;2.244;2023-04-25T00:09:49;2.00;1.00;1.00
73146;PMS7003;61345;48.922;2.244;2023-04-25T00:12:18;1.00;1.00;0.00
73146;PMS7003;61345;48.922;2.244;2023-04-25T00:14:46;1.00;0.00;0.00
73146;PMS7003;61345;48.922;2.244;2023-04-25T00:17:12;2.50;1.00;1.00
73146;PMS7003;61345;48.922;2.244;2023-04-25T00:19:40;1.00;1.00;1.00
73146;PMS7003;61345;48.922;2.244;2023-04-25T00:22:05;3.00;1.00;1.00
73146;PMS7003;61345;48.922;2.244;2023-04-25T00:24:33;2.00;1.00;1.00
73146;PMS7003;61345;48.922;2.244;2023-04-25T00:27:02;3.00;1.00;1.00
73146;PMS7003;61345;48.922;2.244;2023-04-25T00:29:27;0.25;0.25;0.25
73146;PMS7003;61345;48.922;2.244;2023-04-25T00:31:52;1.50;1.00;1.00
73146;PMS7003;61345;48.922;2.244;2023-04-25T00:34:17;2.00;2.00;1.00
73146;PMS7003;61345;48.922;2.244;2023-04-25T00:36:42;3.00;0.67;0.00
73146;PMS7003;61345;48.922;2.244;2023-04-25T00:39:08;1.00;1.00;0.00
73146;PMS7003;61345;48.922;2.244;2023-04-25T00:41:36;1.00;0.67;0.33
73146;PMS7003;61345;48.922;2.244;2023-04-25T00:44:01;0.75;0.75;0.00
73146;PMS7003;61345;48.922;2.244;2023-04-25T00:46:31;2.25;0.75;0.25
73146;PMS7003;61345;48.922;2.244;2023-04-25T00:48:57;2.50;1.00;1.00
73146;PMS7003;61345;48.922;2.244;2023-04-25T00:51:25;1.00;1.00;1.00
73146;PMS7003;61345;48.922;2.244;2023-04-25T00:53:51;3.00;1.00;1.00
73146;PMS7003;61345;48.922;2.244;2023-04-25T00:56:17;1.00;0.00;0.00
73146;PMS7003;61345;48.922;2.244;2023-04-25T00:58:42;2.67;1.00;1.00
73146;PMS7003;61345;48.922;2.244;2023-04-25T01:01:08;1.50;0.50;0.50
73146;PMS7003;61345;48.922;2.244;2023-04-25T01:03:34;1.00;0.00;0.00
73146;PMS7003;61345;48.922;2.244;2023-04-25T01:06:00;3.00;1.00;0.00
73146;PMS7003;61345;48.922;2.244;2023-04-25T01:08:26;1.50;1.25;1.00
73146;PMS7003;61345;48.922;2.244;2023-04-25T01:10:51;0.67;0.00;0.00
73146;PMS7003;61345;48.922;2.244;2023-04-25T01:13:16;0.33;0.33;0.33
73146;PMS7003;61345;48.922;2.244;2023-04-25T01:15:41;1.00;1.00;1.00
73146;PMS7003;61345;48.922;2.244;2023-04-25T01:18:07;2.50;1.00;1.00
73146;PMS7003;61345;48.922;2.244;2023-04-25T01:20:32;2.00;1.00;1.00
73146;PMS7003;61345;48.922;2.244;2023-04-25T01:22:58;1.50;1.00;0.00
73146;PMS7003;61345;48.922;2.244;2023-04-25T01:25:23;2.00;1.00;1.00
73146;PMS7003;61345;48.922;2.244;2023-04-25T01:27:49;4.50;2.00;1.50
73146;PMS7003;61345;48.922;2.244;2023-04-25T01:30:14;3.00;1.00;1.00
73146;PMS7003;61345;48.922;2.244;2023-04-25T01:32:40;1.25;0.75;0.50
73146;PMS7003;61345;48.922;2.244;2023-04-25T01:35:07;3.00;1.00;1.00
73146;PMS7003;61345;48.922;2.244;2023-04-25T01:37:35;2.75;1.75;1.00
73146;PMS7003;61345;48.922;2.244;2023-04-25T01:40:00;0.75;0.75;0.75
73146;PMS7003;61345;48.922;2.244;2023-04-25T01:42:25;1.25;1.25;1.00
73146;PMS7003;61345;48.922;2.244;2023-04-25T01:44:50;1.00;0.67;0.67
73146;PMS7003;61345;48.922;2.244;2023-04-25T01:47:16;2.00;1.00;1.00
73146;PMS7003;61345;48.922;2.244;2023-04-25T01:49:41;1.00;0.67;0.67
73146;PMS7003;61345;48.922;2.244;2023-04-25T01:52:06;1.33;1.33;1.00
73146;PMS7003;61345;48.922;2.244;2023-04-25T01:54:31;1.00;1.00;0.33
73146;PMS7003;61345;48.922;2.244;2023-04-25T01:56:57;2.67;1.00;1.00
73146;PMS7003;61345;48.922;2.244;2023-04-25T01:59:24;3.00;1.00;1.00
73146;PMS7003;61345;48.922;2.244;2023-04-25T02:01:50;5.25;1.00;1.00
73146;PMS7003;61345;48.922;2.244;2023-04-25T02:04:15;2.00;1.00;0.00
73146;PMS7003;61345;48.922;2.244;2023-04-25T02:06:43;5.50;1.75;1.25
73146;PMS7003;61345;48.922;2.244;2023-04-25T02:09:08;1.00;1.00;1.00
73146;PMS7003;61345;48.922;2.244;2023-04-25T02:11:34;2.25;1.00;1.00
73146;PMS7003;61345;48.922;2.244;2023-04-25T02:13:59;0.00;0.00;0.00
73146;PMS7003;61345;48.922;2.244;2023-04-25T02:16:24;3.00;2.00;1.00
73146;PMS7003;61345;48.922;2.244;2023-04-25T02:18:52;3.75;2.00;1.50
73146;PMS7003;61345;48.922;2.244;2023-04-25T02:21:19;4.33;1.67;1.33
73146;PMS7003;61345;48.922;2.244;2023-04-25T02:23:47;1.25;1.00;1.00
73146;PMS7003;61345;48.922;2.244;2023-04-25T02:26:13;5.25;2.00;2.00
73146;PMS7003;61345;48.922;2.244;2023-04-25T02:28:39;2.00;2.00;2.00
73146;PMS7003;61345;48.922;2.244;2023-04-25T02:31:04;3.00;2.00;1.00
73146;PMS7003;61345;48.922;2.244;2023-04-25T02:33:29;1.50;1.00;1.00
73146;PMS7003;61345;48.922;2.244;2023-04-25T02:35:57;2.00;2.00;2.00
73146;PMS7003;61345;48.922;2.244;2023-04-25T02:38:23;5.00;1.25;1.25
73146;PMS7003;61345;48.922;2.244;2023-04-25T02:40:48;1.00;1.00;1.00
73146;PMS7003;61345;48.922;2.244;2023-04-25T02:43:16;2.00;2.00;1.00
73146;PMS7003;61345;48.922;2.244;2023-04-25T02:45:41;5.25;1.75;1.25
73146;PMS7003;61345;48.922;2.244;2023-04-25T02:48:06;1.67;1.67;1.00
73146;PMS7003;61345;48.922;2.244;2023-04-25T02:50:32;2.00;1.33;1.00
73146;PMS7003;61345;48.922;2.244;2023-04-25T02:52:57;2.00;2.00;1.33
73146;PMS7003;61345;48.922;2.244;2023-04-25T02:55:25;5.00;2.00;2.00
73146;PMS7003;61345;48.922;2.244;2023-04-25T02:57:51;1.75;1.75;1.00
73146;PMS7003;61345;48.922;2.244;2023-04-25T03:00:16;2.50;2.25;2.00
73146;PMS7003;61345;48.922;2.244;2023-04-25T03:02:41;2.75;2.00;1.25
73146;PMS7003;61345;48.922;2.244;2023-04-25T03:05:06;2.00;2.00;2.00
73146;PMS7003;61345;48.922;2.244;2023-04-25T03:07:32;5.67;5.00;3.00
73146;PMS7003;61345;48.922;2.244;2023-04-25T03:10:00;6.00;3.00;2.00
73146;PMS7003;61345;48.922;2.244;2023-04-25T03:12:25;5.25;4.00;2.50
73146;PMS7003;61345;48.922;2.244;2023-04-25T03:14:50;1.00;1.00;0.33
73146;PMS7003;61345;48.922;2.244;2023-04-25T03:17:15;3.00;3.00;3.00
73146;PMS7003;61345;48.922;2.244;2023-04-25T03:19:41;1.00;1.00;1.00
73146;PMS7003;61345;48.922;2.244;2023-04-25T03:22:09;5.00;3.00;2.00
73146;PMS7003;61345;48.922;2.244;2023-04-25T03:24:34;4.00;4.00;2.00
73146;PMS7003;61345;48.922;2.244;2023-04-25T03:27:00;3.50;2.75;2.00
73146;PMS7003;61345;48.922;2.244;2023-04-25T03:29:25;2.50;2.50;2.00
73146;PMS7003;61345;48.922;2.244;2023-04-25T03:31:55;8.50;1.00;1.00
73146;PMS7003;61345;48.922;2.244;2023-04-25T03:34:20;4.00;4.00;3.00
73146;PMS7003;61345;48.922;2.244;2023-04-25T03:36:49;2.25;1.25;1.00
73146;PMS7003;61345;48.922;2.244;2023-04-25T03:39:14;4.00;2.00;2.00
73146;PMS7003;61345;48.922;2.244;2023-04-25T03:41:39;5.33;3.00;2.00
73146;PMS7003;61345;48.922;2.244;2023-04-25T03:44:04;1.33;1.33;1.00
73146;PMS7003;61345;48.922;2.244;2023-04-25T03:46:29;5.33;2.33;2.00
73146;PMS7003;61345;48.922;2.244;2023-04-25T03:48:55;3.00;1.00;1.00
73146;PMS7003;61345;48.922;2.244;2023-04-25T03:51:20;5.00;2.00;2.00
73146;PMS7003;61345;48.922;2.244;2023-04-25T03:53:45;1.33;1.00;0.67
73146;PMS7003;61345;48.922;2.244;2023-04-25T03:56:13;5.00;2.00;1.00
73146;PMS7003;61345;48.922;2.244;2023-04-25T03:58:39;5.50;2.00;2.00
73146;PMS7003;61345;48.922;2.244;2023-04-25T04:01:07;5.50;2.75;2.50
73146;PMS7003;61345;48.922;2.244;2023-04-25T04:03:33;3.50;2.50;2.00
73146;PMS7003;61345;48.922;2.244;2023-04-25T04:05:59;5.25;3.00;2.00
73146;PMS7003;61345;48.922;2.244;2023-04-25T04:08:24;7.00;2.00;2.00
73146;PMS7003;61345;48.922;2.244;2023-04-25T04:10:50;2.33;2.00;2.00
73146;PMS7003;61345;48.922;2.244;2023-04-25T04:13:15;3.00;2.00;2.00
73146;PMS7003;61345;48.922;2.244;2023-04-25T04:15:40;5.00;2.33;2.00
73146;PMS7003;61345;48.922;2.244;2023-04-25T04:18:05;1.00;1.00;1.00
73146;PMS7003;61345;48.922;2.244;2023-04-25T04:20:31;3.00;3.00;2.00
73146;PMS7003;61345;48.922;2.244;2023-04-25T04:22:56;5.00;3.00;2.00
73146;PMS7003;61345;48.922;2.244;2023-04-25T04:25:21;4.33;2.00;1.33
73146;PMS7003;61345;48.922;2.244;2023-04-25T04:27:46;2.00;2.00;2.00
73146;PMS7003;61345;48.922;2.244;2023-04-25T04:30:12;3.50;1.00;0.75
73146;PMS7003;61345;48.922;2.244;2023-04-25T04:32:37;4.00;3.25;2.00
73146;PMS7003;61345;48.922;2.244;2023-04-25T04:35:03;3.75;2.75;1.50
73146;PMS7003;61345;48.922;2.244;2023-04-25T04:37:29;5.00;3.25;2.00
73146;PMS7003;61345;48.922;2.244;2023-04-25T04:39:54;2.75;2.75;2.00
73146;PMS7003;61345;48.922;2.244;2023-04-25T04:42:20;9.00;6.00;2.25
73146;PMS7003;61345;48.922;2.244;2023-04-25T04:44:46;8.00;3.00;2.50
73146;PMS7003;61345;48.922;2.244;2023-04-25T04:47:11;2.00;1.00;1.00
73146;PMS7003;61345;48.922;2.244;2023-04-25T04:49:37;2.75;2.75;1.75
73146;PMS7003;61345;48.922;2.244;2023-04-25T04:52:02;2.67;2.67;1.67
73146;PMS7003;61345;48.922;2.244;2023-04-25T04:54:28;2.00;1.00;1.00
73146;PMS7003;61345;48.922;2.244;2023-04-25T04:56:53;6.00;2.75;2.00
73146;PMS7003;61345;48.922;2.244;2023-04-25T04:59:18;3.33;3.33;2.00
73146;PMS7003;61345;48.922;2.244;2023-04-25T05:01:43;6.33;4.33;2.67
73146;PMS7003;61345;48.922;2.244;2023-04-25T05:04:08;5.67;3.00;3.00
73146;PMS7003;61345;48.922;2.244;2023-04-25T05:06:34;5.00;2.00;2.00
73146;PMS7003;61345;48.922;2.244;2023-04-25T05:08:59;5.75;2.00;2.00
73146;PMS7003;61345;48.922;2.244;2023-04-25T05:11:24;7.50;2.75;2.00
73146;PMS7003;61345;48.922;2.244;2023-04-25T05:13:51;4.75;2.00;1.25
73146;PMS7003;61345;48.922;2.244;2023-04-25T05:16:16;5.25;2.00;1.00
73146;PMS7003;61345;48.922;2.244;2023-04-25T05:18:42;3.00;2.00;1.33
73146;PMS7003;61345;48.922;2.244;2023-04-25T05:21:07;7.67;6.00;5.00
73146;PMS7003;61345;48.922;2.244;2023-04-25T05:23:32;6.00;2.67;2.00
73146;PMS7003;61345;48.922;2.244;2023-04-25T05:25:58;5.75;5.75;3.00
73146;PMS7003;61345;48.922;2.244;2023-04-25T05:28:23;9.75;6.50;4.25
73146;PMS7003;61345;48.922;2.244;2023-04-25T05:30:48;9.00;7.67;4.33
73146;PMS7003;61345;48.922;2.244;2023-04-25T05:33:14;10.50;6.00;3.00
73146;PMS7003;61345;48.922;2.244;2023-04-25T05:35:41;3.00;2.25;2.00
73146;PMS7003;61345;48.922;2.244;2023-04-25T05:38:07;6.00;6.00;3.00
73146;PMS7003;61345;48.922;2.244;2023-04-25T05:40:32;9.33;9.00;6.33
73146;PMS7003;61345;48.922;2.244;2023-04-25T05:42:57;10.33;10.00;9.00
73146;PMS7003;61345;48.922;2.244;2023-04-25T05:45:22;7.00;7.00;5.00
73146;PMS7003;61345;48.922;2.244;2023-04-25T05:47:48;9.50;6.25;5.75
73146;PMS7003;61345;48.922;2.244;2023-04-25T05:50:13;8.67;4.33;3.00
73146;PMS7003;61345;48.922;2.244;2023-04-25T05:52:38;8.33;6.00;5.67
73146;PMS7003;61345;48.922;2.244;2023-04-25T05:55:03;6.25;6.25;5.00
73146;PMS7003;61345;48.922;2.244;2023-04-25T05:57:29;10.75;10.75;9.25
73146;PMS7003;61345;48.922;2.244;2023-04-25T05:59:54;13.75;9.00;6.00
73146;PMS7003;61345;48.922;2.244;2023-04-25T06:02:20;12.00;6.00;5.00
73146;PMS7003;61345;48.922;2.244;2023-04-25T06:04:45;14.25;7.50;5.50
73146;PMS7003;61345;48.922;2.244;2023-04-25T06:07:11;2.50;2.25;2.00
73146;PMS7003;61345;48.922;2.244;2023-04-25T06:09:36;9.75;6.25;5.00
73146;PMS7003;61345;48.922;2.244;2023-04-25T06:12:03;5.25;3.00;2.00
73146;PMS7003;61345;48.922;2.244;2023-04-25T06:17:04;4.50;2.00;2.00
73146;PMS7003;61345;48.922;2.244;2023-04-25T06:19:33;4.00;2.25;1.00
73146;PMS7003;61345;48.922;2.244;2023-04-25T06:21:59;3.00;2.00;1.00
73146;PMS7003;61345;48.922;2.244;2023-04-25T06:24:24;2.00;1.00;1.00
73146;PMS7003;61345;48.922;2.244;2023-04-25T06:26:49;1.33;1.33;1.00
73146;PMS7003;61345;48.922;2.244;2023-04-25T06:29:14;2.00;2.00;2.00
73146;PMS7003;61345;48.922;2.244;2023-04-25T06:31:40;7.00;3.00;2.00
73146;PMS7003;61345;48.922;2.244;2023-04-25T06:34:05;3.00;2.00;1.67
73146;PMS7003;61345;48.922;2.244;2023-04-25T06:36:30;4.33;2.00;2.00
73146;PMS7003;61345;48.922;2.244;2023-04-25T06:38:55;6.00;1.67;1.00
73146;PMS7003;61345;48.922;2.244;2023-04-25T06:41:20;11.00;3.00;3.00
73146;PMS7003;61345;48.922;2.244;2023-04-25T06:43:46;1.67;1.67;1.00
73146;PMS7003;61345;48.922;2.244;2023-04-25T06:46:11;3.67;1.00;1.00
73146;PMS7003;61345;48.922;2.244;2023-04-25T06:48:36;4.33;1.00;1.00
73146;PMS7003;61345;48.922;2.244;2023-04-25T06:51:01;6.00;3.00;2.00
73146;PMS7003;61345;48.922;2.244;2023-04-25T06:53:27;1.67;1.00;1.00
73146;PMS7003;61345;48.922;2.244;2023-04-25T06:55:52;5.00;3.50;3.00
73146;PMS7003;61345;48.922;2.244;2023-04-25T06:58:17;6.50;3.00;2.00
73146;PMS7003;61345;48.922;2.244;2023-04-25T07:00:43;9.00;6.25;5.00
73146;PMS7003;61345;48.922;2.244;2023-04-25T07:03:08;6.00;5.00;3.00
73146;PMS7003;61345;48.922;2.244;2023-04-25T07:05:33;8.33;6.00;4.33
73146;PMS7003;61345;48.922;2.244;2023-04-25T07:07:58;5.00;5.00;3.67
73146;PMS7003;61345;48.922;2.244;2023-04-25T07:10:23;9.00;5.33;4.33
73146;PMS7003;61345;48.922;2.244;2023-04-25T07:12:49;8.67;6.67;4.33
73146;PMS7003;61345;48.922;2.244;2023-04-25T07:15:14;7.67;6.00;3.00
73146;PMS7003;61345;48.922;2.244;2023-04-25T07:17:39;9.75;5.00;2.00
73146;PMS7003;61345;48.922;2.244;2023-04-25T07:20:05;11.00;3.00;3.00
73146;PMS7003;61345;48.922;2.244;2023-04-25T07:22:31;5.50;3.50;3.00
73146;PMS7003;61345;48.922;2.244;2023-04-25T07:24:56;9.00;5.25;3.00
73146;PMS7003;61345;48.922;2.244;2023-04-25T07:27:21;7.00;5.00;4.33
73146;PMS7003;61345;48.922;2.244;2023-04-25T07:29:46;9.00;3.00;1.67
73146;PMS7003;61345;48.922;2.244;2023-04-25T07:32:12;10.00;5.00;3.67
73146;PMS7003;61345;48.922;2.244;2023-04-25T07:34:38;8.75;4.50;3.00
73146;PMS7003;61345;48.922;2.244;2023-04-25T07:37:03;11.67;6.67;4.33
73146;PMS7003;61345;48.922;2.244;2023-04-25T07:39:31;13.75;5.75;4.50
73146;PMS7003;61345;48.922;2.244;2023-04-25T07:41:56;7.25;4.50;2.25
73146;PMS7003;61345;48.922;2.244;2023-04-25T07:44:26;7.00;5.25;3.00
73146;PMS7003;61345;48.922;2.244;2023-04-25T07:46:51;8.00;4.50;3.00
73146;PMS7003;61345;48.922;2.244;2023-04-25T07:49:16;6.33;6.00;5.00
73146;PMS7003;61345;48.922;2.244;2023-04-25T07:51:41;7.00;5.33;4.33
73146;PMS7003;61345;48.922;2.244;2023-04-25T07:54:08;7.00;5.50;3.50
73146;PMS7003;61345;48.922;2.244;2023-04-25T07:56:34;12.25;5.00;2.00
73146;PMS7003;61345;48.922;2.244;2023-04-25T07:58:59;7.00;5.00;2.00
73146;PMS7003;61345;48.922;2.244;2023-04-25T08:01:46;5.50;3.00;2.75
73146;PMS7003;61345;48.922;2.244;2023-04-25T08:04:22;6.00;5.00;2.25
73146;PMS7003;61345;48.922;2.244;2023-04-25T08:06:47;4.00;3.00;2.00
73146;PMS7003;61345;48.922;2.244;2023-04-25T08:12:04;6.50;4.25;1.50
73146;PMS7003;61345;48.922;2.244;2023-04-25T08:14:29;2.00;2.00;1.50
73146;PMS7003;61345;48.922;2.244;2023-04-25T08:17:00;4.50;2.75;1.75
73146;PMS7003;61345;48.922;2.244;2023-04-25T08:19:25;6.00;2.67;1.67
73146;PMS7003;61345;48.922;2.244;2023-04-25T08:21:51;5.75;2.50;2.00
73146;PMS7003;61345;48.922;2.244;2023-04-25T08:24:16;5.25;2.00;2.00
73146;PMS7003;61345;48.922;2.244;2023-04-25T08:26:41;6.00;3.00;2.00
73146;PMS7003;61345;48.922;2.244;2023-04-25T08:29:07;2.67;2.00;1.67
73146;PMS7003;61345;48.922;2.244;2023-04-25T08:31:32;2.67;2.00;2.00
73146;PMS7003;61345;48.922;2.244;2023-04-25T08:33:57;2.33;2.33;1.67
73146;PMS7003;61345;48.922;2.244;2023-04-25T08:36:22;3.00;2.00;1.33
73146;PMS7003;61345;48.922;2.244;2023-04-25T08:38:48;2.25;2.25;2.00
73146;PMS7003;61345;48.922;2.244;2023-04-25T08:41:13;7.50;5.00;1.25
73146;PMS7003;61345;48.922;2.244;2023-04-25T08:43:40;5.25;4.50;2.00
73146;PMS7003;61345;48.922;2.244;2023-04-25T08:46:07;6.50;2.75;2.50
73146;PMS7003;61345;48.922;2.244;2023-04-25T08:48:32;5.50;2.00;1.00
73146;PMS7003;61345;48.922;2.244;2023-04-25T08:50:58;7.25;3.00;2.00
73146;PMS7003;61345;48.922;2.244;2023-04-25T08:53:26;5.75;2.00;2.00
73146;PMS7003;61345;48.922;2.244;2023-04-25T08:55:55;4.75;2.75;2.00
73146;PMS7003;61345;48.922;2.244;2023-04-25T08:58:21;3.00;3.00;2.00
73146;PMS7003;61345;48.922;2.244;2023-04-25T09:00:47;3.00;3.00;2.00
73146;PMS7003;61345;48.922;2.244;2023-04-25T09:03:12;5.00;2.00;1.00
73146;PMS7003;61345;48.922;2.244;2023-04-25T09:05:37;3.00;1.25;0.25
73146;PMS7003;61345;48.922;2.244;2023-04-25T09:08:05;5.50;2.50;2.00
73146;PMS7003;61345;48.922;2.244;2023-04-25T09:10:30;2.25;2.25;1.75
73146;PMS7003;61345;48.922;2.244;2023-04-25T09:15:27;7.50;1.75;1.00
73146;PMS7003;61345;48.922;2.244;2023-04-25T09:17:56;2.67;2.00;1.67
73146;PMS7003;61345;48.922;2.244;2023-04-25T09:20:21;7.25;2.00;1.50
73146;PMS7003;61345;48.922;2.244;2023-04-25T09:22:46;6.67;2.00;1.00
73146;PMS7003;61345;48.922;2.244;2023-04-25T09:25:12;4.33;1.33;1.00
73146;PMS7003;61345;48.922;2.244;2023-04-25T09:28:12;2.25;2.00;1.00
73146;PMS7003;61345;48.922;2.244;2023-04-25T09:30:31;3.00;2.00;1.25
73146;PMS7003;61345;48.922;2.244;2023-04-25T09:32:57;5.00;2.00;2.00
73146;PMS7003;61345;48.922;2.244;2023-04-25T09:35:23;3.50;2.00;1.75
73146;PMS7003;61345;48.922;2.244;2023-04-25T09:37:49;4.50;2.00;1.25
73146;PMS7003;61345;48.922;2.244;2023-04-25T09:40:15;3.00;1.25;1.25
73146;PMS7003;61345;48.922;2.244;2023-04-25T09:42:42;4.00;2.00;2.00
73146;PMS7003;61345;48.922;2.244;2023-04-25T09:45:08;3.33;2.00;1.33
73146;PMS7003;61345;48.922;2.244;2023-04-25T09:47:37;5.75;2.00;2.00
73146;PMS7003;61345;48.922;2.244;2023-04-25T09:50:04;7.25;3.00;1.50
73146;PMS7003;61345;48.922;2.244;2023-04-25T09:52:38;4.00;2.00;1.00
73146;PMS7003;61345;48.922;2.244;2023-04-25T09:55:03;1.67;1.00;1.00
73146;PMS7003;61345;48.922;2.244;2023-04-25T09:57:28;6.75;1.75;1.75
73146;PMS7003;61345;48.922;2.244;2023-04-25T09:59:54;2.00;1.25;1.25
73146;PMS7003;61345;48.922;2.244;2023-04-25T10:02:22;3.00;1.00;1.00
73146;PMS7003;61345;48.922;2.244;2023-04-25T10:04:48;2.00;1.50;1.00
73146;PMS7003;61345;48.922;2.244;2023-04-25T10:07:16;1.25;1.25;1.00
73146;PMS7003;61345;48.922;2.244;2023-04-25T10:09:41;3.50;2.00;1.00
73146;PMS7003;61345;48.922;2.244;2023-04-25T10:12:07;1.00;1.00;1.00
73146;PMS7003;61345;48.922;2.244;2023-04-25T10:14:33;2.75;1.00;1.00
73146;PMS7003;61345;48.922;2.244;2023-04-25T10:16:59;2.00;2.00;1.00
73146;PMS7003;61345;48.922;2.244;2023-04-25T10:19:25;3.25;1.75;1.50
73146;PMS7003;61345;48.922;2.244;2023-04-25T10:24:21;0.25;0.25;0.25
73146;PMS7003;61345;48.922;2.244;2023-04-25T10:26:47;4.00;2.25;1.00
73146;PMS7003;61345;48.922;2.244;2023-04-25T10:29:14;2.25;1.50;1.25
73146;PMS7003;61345;48.922;2.244;2023-04-25T10:31:46;1.50;1.25;1.00
73146;PMS7003;61345;48.922;2.244;2023-04-25T10:34:12;1.00;1.00;1.00
73146;PMS7003;61345;48.922;2.244;2023-04-25T10:36:37;1.33;1.00;0.67
73146;PMS7003;61345;48.922;2.244;2023-04-25T10:39:03;2.75;1.25;0.75
73146;PMS7003;61345;48.922;2.244;2023-04-25T10:41:31;8.50;1.00;1.00
73146;PMS7003;61345;48.922;2.244;2023-04-25T10:44:10;4.25;1.50;1.00
73146;PMS7003;61345;48.922;2.244;2023-04-25T10:46:35;5.33;2.33;2.00
73146;PMS7003;61345;48.922;2.244;2023-04-25T10:49:01;4.00;2.00;1.00
73146;PMS7003;61345;48.922;2.244;2023-04-25T10:51:27;2.00;1.00;1.00
73146;PMS7003;61345;48.922;2.244;2023-04-25T10:56:27;1.75;1.00;1.00
73146;PMS7003;61345;48.922;2.244;2023-04-25T10:59:02;2.50;1.00;1.00
73146;PMS7003;61345;48.922;2.244;2023-04-25T11:01:29;0.75;0.75;0.00
73146;PMS7003;61345;48.922;2.244;2023-04-25T11:04:00;1.00;0.50;0.50
73146;PMS7003;61345;48.922;2.244;2023-04-25T11:09:02;3.00;1.00;1.00
73146;PMS7003;61345;48.922;2.244;2023-04-25T11:11:28;2.50;1.00;1.00
73146;PMS7003;61345;48.922;2.244;2023-04-25T11:13:53;1.00;1.00;0.50
73146;PMS7003;61345;48.922;2.244;2023-04-25T11:16:18;1.67;1.00;0.00
73146;PMS7003;61345;48.922;2.244;2023-04-25T11:18:44;3.00;1.00;1.00
73146;PMS7003;61345;48.922;2.244;2023-04-25T11:21:09;1.00;1.00;0.00
73146;PMS7003;61345;48.922;2.244;2023-04-25T11:23:35;0.50;0.50;0.00
73146;PMS7003;61345;48.922;2.244;2023-04-25T11:26:00;1.25;1.25;1.00
73146;PMS7003;61345;48.922;2.244;2023-04-25T11:28:28;1.25;1.00;0.75
73146;PMS7003;61345;48.922;2.244;2023-04-25T11:30:53;2.33;1.67;1.00
73146;PMS7003;61345;48.922;2.244;2023-04-25T11:33:22;1.33;0.67;0.33
73146;PMS7003;61345;48.922;2.244;2023-04-25T11:35:48;1.00;1.00;1.00
73146;PMS7003;61345;48.922;2.244;2023-04-25T11:38:13;1.00;1.00;1.00
73146;PMS7003;61345;48.922;2.244;2023-04-25T11:40:38;1.00;1.00;1.00
73146;PMS7003;61345;48.922;2.244;2023-04-25T11:43:03;0.67;0.00;0.00
73146;PMS7003;61345;48.922;2.244;2023-04-25T11:45:28;1.00;0.67;0.00
73146;PMS7003;61345;48.922;2.244;2023-04-25T11:47:55;2.75;1.50;0.50
73146;PMS7003;61345;48.922;2.244;2023-04-25T11:50:20;0.67;0.33;0.33
73146;PMS7003;61345;48.922;2.244;2023-04-25T11:52:46;4.00;2.00;2.00
73146;PMS7003;61345;48.922;2.244;2023-04-25T11:55:18;3.00;1.00;1.00
73146;PMS7003;61345;48.922;2.244;2023-04-25T11:57:44;1.25;1.25;1.00
73146;PMS7003;61345;48.922;2.244;2023-04-25T12:00:13;7.00;3.25;2.00
73146;PMS7003;61345;48.922;2.244;2023-04-25T12:02:41;2.00;0.75;0.75
73146;PMS7003;61345;48.922;2.244;2023-04-25T12:05:07;5.00;3.00;2.00
73146;PMS7003;61345;48.922;2.244;2023-04-25T12:07:33;5.75;3.25;3.00
73146;PMS7003;61345;48.922;2.244;2023-04-25T12:09:58;1.00;1.00;0.67
73146;PMS7003;61345;48.922;2.244;2023-04-25T12:12:27;4.33;2.00;2.00
73146;PMS7003;61345;48.922;2.244;2023-04-25T12:14:52;2.00;2.00;1.25
73146;PMS7003;61345;48.922;2.244;2023-04-25T12:17:17;0.25;0.00;0.00
73146;PMS7003;61345;48.922;2.244;2023-04-25T12:19:43;4.00;1.67;1.33
73146;PMS7003;61345;48.922;2.244;2023-04-25T12:22:19;2.75;2.00;2.00
73146;PMS7003;61345;48.922;2.244;2023-04-25T12:24:45;3.00;2.00;1.00
73146;PMS7003;61345;48.922;2.244;2023-04-25T12:27:10;2.33;1.00;1.00
73146;PMS7003;61345;48.922;2.244;2023-04-25T12:29:35;4.00;1.00;1.00
73146;PMS7003;61345;48.922;2.244;2023-04-25T12:32:00;2.75;1.75;1.25
73146;PMS7003;61345;48.922;2.244;2023-04-25T12:34:28;4.00;1.00;1.00
73146;PMS7003;61345;48.922;2.244;2023-04-25T12:36:53;2.00;2.00;1.00
73146;PMS7003;61345;48.922;2.244;2023-04-25T12:39:19;2.00;2.00;1.67
73146;PMS7003;61345;48.922;2.244;2023-04-25T12:41:46;1.50;1.50;1.00
73146;PMS7003;61345;48.922;2.244;2023-04-25T12:44:12;7.50;2.25;2.00
73146;PMS7003;61345;48.922;2.244;2023-04-25T12:46:37;2.75;2.00;1.50
73146;PMS7003;61345;48.922;2.244;2023-04-25T12:49:03;2.00;2.00;1.00
73146;PMS7003;61345;48.922;2.244;2023-04-25T12:51:28;3.00;2.00;1.75
73146;PMS7003;61345;48.922;2.244;2023-04-25T12:53:54;3.00;1.50;1.25
73146;PMS7003;61345;48.922;2.244;2023-04-25T12:56:19;2.00;2.00;1.00
73146;PMS7003;61345;48.922;2.244;2023-04-25T12:58:44;5.00;1.00;1.00
73146;PMS7003;61345;48.922;2.244;2023-04-25T13:01:10;2.00;2.00;1.00
73146;PMS7003;61345;48.922;2.244;2023-04-25T13:03:36;2.00;2.00;2.00
73146;PMS7003;61345;48.922;2.244;2023-04-25T13:06:01;1.00;1.00;0.67
73146;PMS7003;61345;48.922;2.244;2023-04-25T13:08:27;1.67;1.00;1.00
73146;PMS7003;61345;48.922;2.244;2023-04-25T13:10:52;3.00;0.00;0.00
73146;PMS7003;61345;48.922;2.244;2023-04-25T13:13:17;2.33;1.33;1.00
73146;PMS7003;61345;48.922;2.244;2023-04-25T13:15:42;0.00;0.00;0.00
73146;PMS7003;61345;48.922;2.244;2023-04-25T13:18:08;1.00;0.00;0.00
73146;PMS7003;61345;48.922;2.244;2023-04-25T13:20:33;1.00;0.00;0.00
73146;PMS7003;61345;48.922;2.244;2023-04-25T13:22:58;2.00;1.00;0.75
73146;PMS7003;61345;48.922;2.244;2023-04-25T13:25:23;2.00;1.00;1.00
73146;PMS7003;61345;48.922;2.244;2023-04-25T13:27:48;2.00;1.00;1.00
73146;PMS7003;61345;48.922;2.244;2023-04-25T13:30:14;0.50;0.50;0.00
73146;PMS7003;61345;48.922;2.244;2023-04-25T13:32:39;0.75;0.75;0.75
73146;PMS7003;61345;48.922;2.244;2023-04-25T13:35:07;0.25;0.25;0.00
73146;PMS7003;61345;48.922;2.244;2023-04-25T13:37:32;4.00;1.00;0.50
73146;PMS7003;61345;48.922;2.244;2023-04-25T13:40:00;2.33;1.00;1.00
73146;PMS7003;61345;48.922;2.244;2023-04-25T13:42:27;3.25;0.50;0.50
73146;PMS7003;61345;48.922;2.244;2023-04-25T13:44:53;1.00;1.00;1.00
73146;PMS7003;61345;48.922;2.244;2023-04-25T13:47:18;1.00;1.00;0.67
73146;PMS7003;61345;48.922;2.244;2023-04-25T13:49:43;0.33;0.33;0.00
73146;PMS7003;61345;48.922;2.244;2023-04-25T13:52:08;1.33;1.00;1.00
73146;PMS7003;61345;48.922;2.244;2023-04-25T13:54:34;0.67;0.67;0.00
73146;PMS7003;61345;48.922;2.244;2023-04-25T13:56:59;2.00;2.00;0.33
73146;PMS7003;61345;48.922;2.244;2023-04-25T13:59:25;3.00;1.00;1.00
73146;PMS7003;61345;48.922;2.244;2023-04-25T14:01:50;4.25;2.00;1.00
73146;PMS7003;61345;48.922;2.244;2023-04-25T14:04:16;2.50;0.50;0.00
73146;PMS7003;61345;48.922;2.244;2023-04-25T14:06:41;3.00;1.00;0.00
73146;PMS7003;61345;48.922;2.244;2023-04-25T14:09:06;1.00;1.00;1.00
73146;PMS7003;61345;48.922;2.244;2023-04-25T14:11:35;0.00;0.00;0.00
73146;PMS7003;61345;48.922;2.244;2023-04-25T14:14:01;1.00;1.00;1.00
73146;PMS7003;61345;48.922;2.244;2023-04-25T14:16:26;2.00;1.00;1.00
73146;PMS7003;61345;48.922;2.244;2023-04-25T14:18:52;1.00;1.00;1.00
73146;PMS7003;61345;48.922;2.244;2023-04-25T14:21:17;1.75;1.00;1.00
73146;PMS7003;61345;48.922;2.244;2023-04-25T14:23:42;0.00;0.00;0.00
73146;PMS7003;61345;48.922;2.244;2023-04-25T14:26:07;1.67;1.00;0.67
73146;PMS7003;61345;48.922;2.244;2023-04-25T14:28:36;2.00;2.00;1.75